sensor_id;sensor_type;location;lat;lon;timestamp;P1;durP1;ratioP1;P2;durP2;ratioP2
38783;SDS011;24531;45.502;12.238;2024-03-07T00:02:20;2.75;;;2.10;;
38783;SDS011;24531;45.502;12.238;2024-03-07T00:04:45;4.80;;;2.83;;
38783;SDS011;24531;45.502;12.238;2024-03-07T00:07:11;3.75;;;2.58;;
38783;SDS011;24531;45.502;12.238;2024-03-07T00:09:37;2.83;;;2.35;;
38783;SDS011;24531;45.502;12.238;2024-03-07T00:12:03;4.47;;;3.00;;
38783;SDS011;24531;45.502;12.238;2024-03-07T00:14:33;2.97;;;2.67;;
38783;SDS011;24531;45.502;12.238;2024-03-07T00:17:00;3.90;;;2.58;;
38783;SDS011;24531;45.502;12.238;2024-03-07T00:19:26;2.97;;;2.53;;
38783;SDS011;24531;45.502;12.238;2024-03-07T00:21:52;4.03;;;2.42;;
38783;SDS011;24531;45.502;12.238;2024-03-07T00:24:18;3.75;;;3.05;;
38783;SDS011;24531;45.502;12.238;2024-03-07T00:26:48;4.75;;;2.80;;
38783;SDS011;24531;45.502;12.238;2024-03-07T00:29:17;3.00;;;2.47;;
38783;SDS011;24531;45.502;12.238;2024-03-07T00:31:43;4.63;;;3.33;;
38783;SDS011;24531;45.502;12.238;2024-03-07T00:34:11;3.67;;;2.70;;
38783;SDS011;24531;45.502;12.238;2024-03-07T00:36:39;4.55;;;2.75;;
38783;SDS011;24531;45.502;12.238;2024-03-07T00:39:05;4.03;;;2.90;;
38783;SDS011;24531;45.502;12.238;2024-03-07T00:41:33;3.88;;;2.80;;
38783;SDS011;24531;45.502;12.238;2024-03-07T00:43:59;5.65;;;3.38;;
38783;SDS011;24531;45.502;12.238;2024-03-07T00:46:24;4.35;;;3.33;;
38783;SDS011;24531;45.502;12.238;2024-03-07T00:48:50;3.75;;;3.33;;
38783;SDS011;24531;45.502;12.238;2024-03-07T00:51:16;3.78;;;3.00;;
38783;SDS011;24531;45.502;12.238;2024-03-07T00:53:41;4.03;;;2.95;;
38783;SDS011;24531;45.502;12.238;2024-03-07T00:56:07;3.65;;;2.90;;
38783;SDS011;24531;45.502;12.238;2024-03-07T00:58:32;4.13;;;3.35;;
38783;SDS011;24531;45.502;12.238;2024-03-07T01:00:59;5.28;;;3.03;;
38783;SDS011;24531;45.502;12.238;2024-03-07T01:03:25;4.93;;;3.20;;
38783;SDS011;24531;45.502;12.238;2024-03-07T01:05:52;5.15;;;3.17;;
38783;SDS011;24531;45.502;12.238;2024-03-07T01:08:17;3.67;;;3.22;;
38783;SDS011;24531;45.502;12.238;2024-03-07T01:10:43;4.32;;;3.42;;
38783;SDS011;24531;45.502;12.238;2024-03-07T01:13:08;5.57;;;3.55;;
38783;SDS011;24531;45.502;12.238;2024-03-07T01:15:44;4.25;;;3.45;;
38783;SDS011;24531;45.502;12.238;2024-03-07T01:18:10;4.45;;;3.78;;
38783;SDS011;24531;45.502;12.238;2024-03-07T01:20:35;6.43;;;3.97;;
38783;SDS011;24531;45.502;12.238;2024-03-07T01:23:01;4.35;;;3.75;;
38783;SDS011;24531;45.502;12.238;2024-03-07T01:25:27;4.13;;;3.45;;
38783;SDS011;24531;45.502;12.238;2024-03-07T01:27:52;4.80;;;4.28;;
38783;SDS011;24531;45.502;12.238;2024-03-07T01:32:54;4.22;;;3.28;;
38783;SDS011;24531;45.502;12.238;2024-03-07T01:35:20;5.30;;;4.03;;
38783;SDS011;24531;45.502;12.238;2024-03-07T01:37:45;4.57;;;3.88;;
38783;SDS011;24531;45.502;12.238;2024-03-07T01:46:21;6.30;;;4.10;;
38783;SDS011;24531;45.502;12.238;2024-03-07T01:48:47;5.00;;;4.15;;
38783;SDS011;24531;45.502;12.238;2024-03-07T01:51:13;5.03;;;4.10;;
38783;SDS011;24531;45.502;12.238;2024-03-07T01:53:39;5.20;;;3.92;;
38783;SDS011;24531;45.502;12.238;2024-03-07T01:56:05;5.93;;;4.57;;
38783;SDS011;24531;45.502;12.238;2024-03-07T01:58:31;6.22;;;4.45;;
38783;SDS011;24531;45.502;12.238;2024-03-07T02:00:57;4.50;;;4.03;;
38783;SDS011;24531;45.502;12.238;2024-03-07T02:03:24;6.22;;;4.40;;
38783;SDS011;24531;45.502;12.238;2024-03-07T02:05:49;7.03;;;4.88;;
38783;SDS011;24531;45.502;12.238;2024-03-07T02:08:16;5.72;;;4.88;;
38783;SDS011;24531;45.502;12.238;2024-03-07T02:10:42;7.20;;;4.50;;
38783;SDS011;24531;45.502;12.238;2024-03-07T02:13:08;7.53;;;5.00;;
38783;SDS011;24531;45.502;12.238;2024-03-07T02:15:33;8.38;;;4.90;;
38783;SDS011;24531;45.502;12.238;2024-03-07T02:17:59;7.18;;;5.20;;
38783;SDS011;24531;45.502;12.238;2024-03-07T02:20:25;7.35;;;4.80;;
38783;SDS011;24531;45.502;12.238;2024-03-07T02:22:53;7.22;;;5.03;;
38783;SDS011;24531;45.502;12.238;2024-03-07T02:25:19;5.80;;;5.18;;
38783;SDS011;24531;45.502;12.238;2024-03-07T02:27:45;6.20;;;5.53;;
38783;SDS011;24531;45.502;12.238;2024-03-07T02:30:11;7.07;;;5.65;;
38783;SDS011;24531;45.502;12.238;2024-03-07T02:32:37;6.53;;;5.72;;
38783;SDS011;24531;45.502;12.238;2024-03-07T02:35:04;7.22;;;5.75;;
38783;SDS011;24531;45.502;12.238;2024-03-07T02:37:30;7.38;;;6.47;;
38783;SDS011;24531;45.502;12.238;2024-03-07T02:39:56;8.82;;;6.35;;
38783;SDS011;24531;45.502;12.238;2024-03-07T02:42:21;12.00;;;6.50;;
38783;SDS011;24531;45.502;12.238;2024-03-07T02:44:47;9.43;;;5.82;;
38783;SDS011;24531;45.502;12.238;2024-03-07T02:47:12;7.43;;;6.15;;
38783;SDS011;24531;45.502;12.238;2024-03-07T02:49:38;8.48;;;6.47;;
38783;SDS011;24531;45.502;12.238;2024-03-07T02:52:05;8.60;;;6.03;;
38783;SDS011;24531;45.502;12.238;2024-03-07T02:54:33;7.90;;;5.75;;
38783;SDS011;24531;45.502;12.238;2024-03-07T02:56:59;10.10;;;6.70;;
38783;SDS011;24531;45.502;12.238;2024-03-07T02:59:25;8.85;;;6.90;;
38783;SDS011;24531;45.502;12.238;2024-03-07T03:01:50;7.85;;;6.43;;
38783;SDS011;24531;45.502;12.238;2024-03-07T03:04:16;7.07;;;5.85;;
38783;SDS011;24531;45.502;12.238;2024-03-07T03:06:42;7.78;;;6.65;;
38783;SDS011;24531;45.502;12.238;2024-03-07T03:09:08;9.32;;;7.13;;
38783;SDS011;24531;45.502;12.238;2024-03-07T03:11:38;9.05;;;7.28;;
38783;SDS011;24531;45.502;12.238;2024-03-07T03:14:04;9.55;;;6.88;;
38783;SDS011;24531;45.502;12.238;2024-03-07T03:16:30;9.85;;;6.90;;
38783;SDS011;24531;45.502;12.238;2024-03-07T03:18:56;10.00;;;7.20;;
38783;SDS011;24531;45.502;12.238;2024-03-07T03:21:22;9.35;;;7.05;;
38783;SDS011;24531;45.502;12.238;2024-03-07T03:23:48;8.07;;;6.65;;
38783;SDS011;24531;45.502;12.238;2024-03-07T03:26:14;10.45;;;7.53;;
38783;SDS011;24531;45.502;12.238;2024-03-07T03:28:40;9.93;;;7.13;;
38783;SDS011;24531;45.502;12.238;2024-03-07T03:31:07;9.60;;;7.90;;
38783;SDS011;24531;45.502;12.238;2024-03-07T03:33:33;10.15;;;6.75;;
38783;SDS011;24531;45.502;12.238;2024-03-07T03:36:00;10.48;;;7.07;;
38783;SDS011;24531;45.502;12.238;2024-03-07T03:38:25;8.45;;;7.00;;
38783;SDS011;24531;45.502;12.238;2024-03-07T03:40:51;12.32;;;7.85;;
38783;SDS011;24531;45.502;12.238;2024-03-07T03:43:17;9.68;;;7.05;;
38783;SDS011;24531;45.502;12.238;2024-03-07T03:45:43;11.25;;;7.63;;
38783;SDS011;24531;45.502;12.238;2024-03-07T03:48:09;8.23;;;6.85;;
38783;SDS011;24531;45.502;12.238;2024-03-07T03:50:34;8.43;;;7.15;;
38783;SDS011;24531;45.502;12.238;2024-03-07T03:53:00;10.43;;;7.72;;
38783;SDS011;24531;45.502;12.238;2024-03-07T03:55:27;10.85;;;7.53;;
38783;SDS011;24531;45.502;12.238;2024-03-07T03:57:52;9.55;;;7.97;;
38783;SDS011;24531;45.502;12.238;2024-03-07T04:00:18;7.93;;;6.90;;
38783;SDS011;24531;45.502;12.238;2024-03-07T04:02:44;7.85;;;6.95;;
38783;SDS011;24531;45.502;12.238;2024-03-07T04:05:13;10.68;;;7.57;;
38783;SDS011;24531;45.502;12.238;2024-03-07T04:07:40;10.68;;;7.72;;
38783;SDS011;24531;45.502;12.238;2024-03-07T04:10:09;9.63;;;7.40;;
38783;SDS011;24531;45.502;12.238;2024-03-07T04:12:35;10.45;;;7.88;;
38783;SDS011;24531;45.502;12.238;2024-03-07T04:15:03;16.70;;;8.77;;
38783;SDS011;24531;45.502;12.238;2024-03-07T04:17:30;9.00;;;7.88;;
38783;SDS011;24531;45.502;12.238;2024-03-07T04:19:56;12.93;;;9.20;;
38783;SDS011;24531;45.502;12.238;2024-03-07T04:22:23;12.85;;;7.80;;
38783;SDS011;24531;45.502;12.238;2024-03-07T04:24:49;9.60;;;7.80;;
38783;SDS011;24531;45.502;12.238;2024-03-07T04:27:18;10.27;;;8.25;;
38783;SDS011;24531;45.502;12.238;2024-03-07T04:29:44;13.98;;;8.35;;
38783;SDS011;24531;45.502;12.238;2024-03-07T04:32:12;9.50;;;7.97;;
38783;SDS011;24531;45.502;12.238;2024-03-07T04:34:39;11.90;;;8.18;;
38783;SDS011;24531;45.502;12.238;2024-03-07T04:37:04;9.80;;;8.40;;
38783;SDS011;24531;45.502;12.238;2024-03-07T04:39:30;10.50;;;8.43;;
38783;SDS011;24531;45.502;12.238;2024-03-07T04:41:59;12.88;;;8.15;;
38783;SDS011;24531;45.502;12.238;2024-03-07T04:44:26;9.82;;;8.23;;
38783;SDS011;24531;45.502;12.238;2024-03-07T04:46:55;11.65;;;8.20;;
38783;SDS011;24531;45.502;12.238;2024-03-07T04:49:22;10.68;;;8.30;;
38783;SDS011;24531;45.502;12.238;2024-03-07T04:51:52;13.38;;;8.25;;
38783;SDS011;24531;45.502;12.238;2024-03-07T04:54:20;14.15;;;9.18;;
38783;SDS011;24531;45.502;12.238;2024-03-07T04:56:48;11.90;;;8.20;;
38783;SDS011;24531;45.502;12.238;2024-03-07T04:59:15;10.70;;;8.35;;
38783;SDS011;24531;45.502;12.238;2024-03-07T05:01:45;10.95;;;8.90;;
38783;SDS011;24531;45.502;12.238;2024-03-07T05:04:12;9.43;;;8.02;;
38783;SDS011;24531;45.502;12.238;2024-03-07T05:06:39;9.43;;;8.30;;
38783;SDS011;24531;45.502;12.238;2024-03-07T05:09:05;11.07;;;8.77;;
38783;SDS011;24531;45.502;12.238;2024-03-07T05:11:33;10.52;;;8.68;;
38783;SDS011;24531;45.502;12.238;2024-03-07T05:13:59;11.07;;;8.30;;
38783;SDS011;24531;45.502;12.238;2024-03-07T05:16:28;10.55;;;8.55;;
38783;SDS011;24531;45.502;12.238;2024-03-07T05:18:54;10.68;;;9.35;;
38783;SDS011;24531;45.502;12.238;2024-03-07T05:21:24;10.48;;;9.02;;
38783;SDS011;24531;45.502;12.238;2024-03-07T05:24:03;9.95;;;8.55;;
38783;SDS011;24531;45.502;12.238;2024-03-07T05:26:30;10.40;;;8.98;;
38783;SDS011;24531;45.502;12.238;2024-03-07T05:29:07;10.10;;;8.52;;
38783;SDS011;24531;45.502;12.238;2024-03-07T05:31:34;11.50;;;9.02;;
38783;SDS011;24531;45.502;12.238;2024-03-07T05:34:01;10.15;;;8.57;;
38783;SDS011;24531;45.502;12.238;2024-03-07T05:36:36;9.45;;;8.50;;
38783;SDS011;24531;45.502;12.238;2024-03-07T05:39:09;11.57;;;9.13;;
38783;SDS011;24531;45.502;12.238;2024-03-07T05:41:36;11.05;;;8.57;;
38783;SDS011;24531;45.502;12.238;2024-03-07T05:44:05;10.20;;;8.68;;
38783;SDS011;24531;45.502;12.238;2024-03-07T05:46:39;12.77;;;8.50;;
38783;SDS011;24531;45.502;12.238;2024-03-07T05:49:14;9.43;;;8.43;;
38783;SDS011;24531;45.502;12.238;2024-03-07T05:51:41;12.98;;;9.30;;
38783;SDS011;24531;45.502;12.238;2024-03-07T05:54:09;11.32;;;9.18;;
38783;SDS011;24531;45.502;12.238;2024-03-07T05:56:38;12.63;;;8.02;;
38783;SDS011;24531;45.502;12.238;2024-03-07T05:59:05;9.13;;;7.60;;
38783;SDS011;24531;45.502;12.238;2024-03-07T06:01:37;11.25;;;8.38;;
38783;SDS011;24531;45.502;12.238;2024-03-07T06:04:05;8.57;;;7.60;;
38783;SDS011;24531;45.502;12.238;2024-03-07T06:06:32;9.93;;;8.05;;
38783;SDS011;24531;45.502;12.238;2024-03-07T06:08:58;10.18;;;8.23;;
38783;SDS011;24531;45.502;12.238;2024-03-07T06:11:37;11.77;;;9.82;;
38783;SDS011;24531;45.502;12.238;2024-03-07T06:14:04;12.00;;;8.13;;
38783;SDS011;24531;45.502;12.238;2024-03-07T06:16:31;10.98;;;9.82;;
38783;SDS011;24531;45.502;12.238;2024-03-07T06:19:00;12.15;;;9.02;;
38783;SDS011;24531;45.502;12.238;2024-03-07T06:21:26;10.25;;;8.40;;
38783;SDS011;24531;45.502;12.238;2024-03-07T06:23:55;8.98;;;7.50;;
38783;SDS011;24531;45.502;12.238;2024-03-07T06:26:34;9.07;;;7.83;;
38783;SDS011;24531;45.502;12.238;2024-03-07T06:29:06;8.43;;;7.53;;
38783;SDS011;24531;45.502;12.238;2024-03-07T06:31:32;9.77;;;7.47;;
38783;SDS011;24531;45.502;12.238;2024-03-07T06:33:58;8.98;;;7.40;;
38783;SDS011;24531;45.502;12.238;2024-03-07T06:36:24;7.80;;;6.75;;
38783;SDS011;24531;45.502;12.238;2024-03-07T06:38:53;9.82;;;7.25;;
38783;SDS011;24531;45.502;12.238;2024-03-07T06:41:19;9.73;;;7.40;;
38783;SDS011;24531;45.502;12.238;2024-03-07T06:43:45;9.25;;;7.07;;
38783;SDS011;24531;45.502;12.238;2024-03-07T06:46:11;10.07;;;7.55;;
38783;SDS011;24531;45.502;12.238;2024-03-07T06:48:37;10.32;;;7.32;;
38783;SDS011;24531;45.502;12.238;2024-03-07T06:51:05;9.85;;;7.25;;
38783;SDS011;24531;45.502;12.238;2024-03-07T06:53:31;7.10;;;6.32;;
38783;SDS011;24531;45.502;12.238;2024-03-07T06:55:57;13.23;;;7.97;;
38783;SDS011;24531;45.502;12.238;2024-03-07T06:58:22;9.27;;;7.40;;
38783;SDS011;24531;45.502;12.238;2024-03-07T07:07:59;8.70;;;7.45;;
38783;SDS011;24531;45.502;12.238;2024-03-07T07:10:26;10.68;;;7.60;;
38783;SDS011;24531;45.502;12.238;2024-03-07T07:12:51;13.45;;;7.85;;
38783;SDS011;24531;45.502;12.238;2024-03-07T07:15:19;8.80;;;6.72;;
38783;SDS011;24531;45.502;12.238;2024-03-07T07:17:46;10.10;;;7.80;;
38783;SDS011;24531;45.502;12.238;2024-03-07T07:20:14;10.43;;;7.30;;
38783;SDS011;24531;45.502;12.238;2024-03-07T07:22:44;9.63;;;8.00;;
38783;SDS011;24531;45.502;12.238;2024-03-07T07:25:11;9.85;;;7.20;;
38783;SDS011;24531;45.502;12.238;2024-03-07T07:27:41;9.70;;;7.53;;
38783;SDS011;24531;45.502;12.238;2024-03-07T07:30:11;11.82;;;7.75;;
38783;SDS011;24531;45.502;12.238;2024-03-07T07:32:39;11.73;;;7.53;;
38783;SDS011;24531;45.502;12.238;2024-03-07T07:35:05;8.45;;;6.90;;
38783;SDS011;24531;45.502;12.238;2024-03-07T07:37:36;9.98;;;6.95;;
38783;SDS011;24531;45.502;12.238;2024-03-07T07:40:08;11.35;;;7.63;;
38783;SDS011;24531;45.502;12.238;2024-03-07T07:42:38;9.20;;;6.97;;
38783;SDS011;24531;45.502;12.238;2024-03-07T07:45:05;11.07;;;7.82;;
38783;SDS011;24531;45.502;12.238;2024-03-07T07:47:32;10.88;;;7.85;;
38783;SDS011;24531;45.502;12.238;2024-03-07T07:49:58;8.60;;;7.68;;
38783;SDS011;24531;45.502;12.238;2024-03-07T07:52:23;11.05;;;8.48;;
38783;SDS011;24531;45.502;12.238;2024-03-07T07:54:49;10.98;;;8.70;;
38783;SDS011;24531;45.502;12.238;2024-03-07T07:57:14;10.75;;;9.07;;
38783;SDS011;24531;45.502;12.238;2024-03-07T07:59:40;11.18;;;8.32;;
38783;SDS011;24531;45.502;12.238;2024-03-07T08:02:06;11.05;;;8.98;;
38783;SDS011;24531;45.502;12.238;2024-03-07T08:04:31;9.48;;;8.43;;
38783;SDS011;24531;45.502;12.238;2024-03-07T08:06:57;10.05;;;8.65;;
38783;SDS011;24531;45.502;12.238;2024-03-07T08:09:23;10.25;;;8.45;;
38783;SDS011;24531;45.502;12.238;2024-03-07T08:11:48;11.05;;;8.43;;
38783;SDS011;24531;45.502;12.238;2024-03-07T08:14:15;10.63;;;8.55;;
38783;SDS011;24531;45.502;12.238;2024-03-07T08:16:41;13.55;;;8.02;;
38783;SDS011;24531;45.502;12.238;2024-03-07T08:19:06;12.07;;;8.63;;
38783;SDS011;24531;45.502;12.238;2024-03-07T08:21:36;11.10;;;8.38;;
38783;SDS011;24531;45.502;12.238;2024-03-07T08:24:02;11.38;;;7.93;;
38783;SDS011;24531;45.502;12.238;2024-03-07T08:26:30;9.50;;;7.93;;
38783;SDS011;24531;45.502;12.238;2024-03-07T08:28:57;9.18;;;7.70;;
38783;SDS011;24531;45.502;12.238;2024-03-07T08:31:24;8.15;;;7.22;;
38783;SDS011;24531;45.502;12.238;2024-03-07T08:33:51;10.00;;;7.95;;
38783;SDS011;24531;45.502;12.238;2024-03-07T08:36:16;8.02;;;7.13;;
38783;SDS011;24531;45.502;12.238;2024-03-07T08:38:42;10.02;;;7.65;;
38783;SDS011;24531;45.502;12.238;2024-03-07T08:41:11;10.38;;;7.10;;
38783;SDS011;24531;45.502;12.238;2024-03-07T08:43:37;8.43;;;7.18;;
38783;SDS011;24531;45.502;12.238;2024-03-07T08:46:02;11.07;;;7.43;;
38783;SDS011;24531;45.502;12.238;2024-03-07T08:48:28;7.93;;;6.32;;
38783;SDS011;24531;45.502;12.238;2024-03-07T08:50:53;7.35;;;6.30;;
38783;SDS011;24531;45.502;12.238;2024-03-07T08:53:19;8.98;;;6.50;;
38783;SDS011;24531;45.502;12.238;2024-03-07T08:55:45;7.00;;;6.18;;
38783;SDS011;24531;45.502;12.238;2024-03-07T08:58:10;13.10;;;7.45;;
38783;SDS011;24531;45.502;12.238;2024-03-07T09:00:36;8.27;;;6.85;;
38783;SDS011;24531;45.502;12.238;2024-03-07T09:03:02;7.20;;;6.25;;
38783;SDS011;24531;45.502;12.238;2024-03-07T09:05:28;8.15;;;6.30;;
38783;SDS011;24531;45.502;12.238;2024-03-07T09:07:56;8.63;;;6.82;;
38783;SDS011;24531;45.502;12.238;2024-03-07T09:10:23;9.15;;;6.80;;
38783;SDS011;24531;45.502;12.238;2024-03-07T09:12:54;8.15;;;6.30;;
38783;SDS011;24531;45.502;12.238;2024-03-07T09:15:20;8.20;;;6.65;;
38783;SDS011;24531;45.502;12.238;2024-03-07T09:17:46;10.15;;;6.47;;
38783;SDS011;24531;45.502;12.238;2024-03-07T09:20:13;8.18;;;6.25;;
38783;SDS011;24531;45.502;12.238;2024-03-07T09:22:40;8.95;;;6.57;;
38783;SDS011;24531;45.502;12.238;2024-03-07T09:25:10;9.35;;;6.70;;
38783;SDS011;24531;45.502;12.238;2024-03-07T09:27:38;8.95;;;6.70;;
38783;SDS011;24531;45.502;12.238;2024-03-07T09:30:05;8.65;;;6.80;;
38783;SDS011;24531;45.502;12.238;2024-03-07T09:32:36;9.00;;;6.75;;
38783;SDS011;24531;45.502;12.238;2024-03-07T09:35:05;9.20;;;7.07;;
38783;SDS011;24531;45.502;12.238;2024-03-07T09:37:32;8.52;;;6.07;;
38783;SDS011;24531;45.502;12.238;2024-03-07T09:39:58;7.03;;;5.85;;
38783;SDS011;24531;45.502;12.238;2024-03-07T09:42:23;8.23;;;6.35;;
38783;SDS011;24531;45.502;12.238;2024-03-07T09:44:51;11.07;;;5.88;;
38783;SDS011;24531;45.502;12.238;2024-03-07T09:47:18;9.13;;;6.75;;
38783;SDS011;24531;45.502;12.238;2024-03-07T09:49:45;8.70;;;6.80;;
38783;SDS011;24531;45.502;12.238;2024-03-07T09:52:10;7.60;;;5.95;;
38783;SDS011;24531;45.502;12.238;2024-03-07T09:54:39;7.60;;;6.80;;
38783;SDS011;24531;45.502;12.238;2024-03-07T09:57:09;7.90;;;6.55;;
38783;SDS011;24531;45.502;12.238;2024-03-07T09:59:41;7.35;;;6.03;;
38783;SDS011;24531;45.502;12.238;2024-03-07T10:02:11;7.65;;;6.05;;
38783;SDS011;24531;45.502;12.238;2024-03-07T10:04:43;9.13;;;6.28;;
38783;SDS011;24531;45.502;12.238;2024-03-07T10:09:43;8.63;;;6.45;;
38783;SDS011;24531;45.502;12.238;2024-03-07T10:12:09;7.50;;;5.68;;
38783;SDS011;24531;45.502;12.238;2024-03-07T10:14:37;10.65;;;7.03;;
38783;SDS011;24531;45.502;12.238;2024-03-07T10:17:03;10.25;;;5.90;;
38783;SDS011;24531;45.502;12.238;2024-03-07T10:19:30;10.13;;;6.60;;
38783;SDS011;24531;45.502;12.238;2024-03-07T10:21:57;8.77;;;6.07;;
38783;SDS011;24531;45.502;12.238;2024-03-07T10:24:26;9.98;;;6.00;;
38783;SDS011;24531;45.502;12.238;2024-03-07T10:26:53;9.00;;;6.50;;
38783;SDS011;24531;45.502;12.238;2024-03-07T10:29:23;7.07;;;5.90;;
38783;SDS011;24531;45.502;12.238;2024-03-07T10:31:49;6.95;;;5.53;;
38783;SDS011;24531;45.502;12.238;2024-03-07T10:34:14;9.60;;;6.35;;
38783;SDS011;24531;45.502;12.238;2024-03-07T10:36:43;8.57;;;6.93;;
38783;SDS011;24531;45.502;12.238;2024-03-07T10:39:10;9.40;;;6.78;;
38783;SDS011;24531;45.502;12.238;2024-03-07T10:41:48;8.30;;;6.60;;
38783;SDS011;24531;45.502;12.238;2024-03-07T10:44:36;8.13;;;5.57;;
38783;SDS011;24531;45.502;12.238;2024-03-07T10:47:06;8.48;;;6.43;;
38783;SDS011;24531;45.502;12.238;2024-03-07T10:49:33;11.40;;;6.75;;
38783;SDS011;24531;45.502;12.238;2024-03-07T10:52:13;9.73;;;6.55;;
38783;SDS011;24531;45.502;12.238;2024-03-07T10:59:51;8.27;;;5.88;;
38783;SDS011;24531;45.502;12.238;2024-03-07T11:04:52;9.50;;;6.47;;
38783;SDS011;24531;45.502;12.238;2024-03-07T11:07:20;9.32;;;6.68;;
38783;SDS011;24531;45.502;12.238;2024-03-07T11:09:51;11.60;;;6.95;;
38783;SDS011;24531;45.502;12.238;2024-03-07T11:12:26;13.10;;;8.35;;
38783;SDS011;24531;45.502;12.238;2024-03-07T11:14:53;11.65;;;8.00;;
38783;SDS011;24531;45.502;12.238;2024-03-07T11:17:21;11.75;;;8.32;;
38783;SDS011;24531;45.502;12.238;2024-03-07T11:19:48;10.02;;;7.80;;
38783;SDS011;24531;45.502;12.238;2024-03-07T11:22:32;9.95;;;7.88;;
38783;SDS011;24531;45.502;12.238;2024-03-07T11:25:05;14.27;;;8.52;;
38783;SDS011;24531;45.502;12.238;2024-03-07T11:27:39;19.35;;;8.55;;
38783;SDS011;24531;45.502;12.238;2024-03-07T11:30:08;11.40;;;8.10;;
38783;SDS011;24531;45.502;12.238;2024-03-07T11:32:35;10.55;;;7.88;;
38783;SDS011;24531;45.502;12.238;2024-03-07T11:35:30;14.88;;;8.98;;
38783;SDS011;24531;45.502;12.238;2024-03-07T11:38:00;10.05;;;7.22;;
38783;SDS011;24531;45.502;12.238;2024-03-07T11:42:55;13.85;;;7.88;;
38783;SDS011;24531;45.502;12.238;2024-03-07T11:45:25;14.95;;;7.40;;
38783;SDS011;24531;45.502;12.238;2024-03-07T11:47:52;15.13;;;7.57;;
38783;SDS011;24531;45.502;12.238;2024-03-07T11:50:37;13.82;;;7.47;;
38783;SDS011;24531;45.502;12.238;2024-03-07T11:53:04;14.07;;;7.32;;
38783;SDS011;24531;45.502;12.238;2024-03-07T11:55:33;10.70;;;7.30;;
38783;SDS011;24531;45.502;12.238;2024-03-07T11:58:07;13.13;;;7.80;;
38783;SDS011;24531;45.502;12.238;2024-03-07T12:00:37;11.95;;;7.20;;
38783;SDS011;24531;45.502;12.238;2024-03-07T12:05:45;14.60;;;7.38;;
38783;SDS011;24531;45.502;12.238;2024-03-07T12:11:21;10.82;;;6.70;;
38783;SDS011;24531;45.502;12.238;2024-03-07T12:14:18;9.45;;;6.85;;
38783;SDS011;24531;45.502;12.238;2024-03-07T12:16:56;11.35;;;6.88;;
38783;SDS011;24531;45.502;12.238;2024-03-07T12:29:06;8.75;;;6.28;;
38783;SDS011;24531;45.502;12.238;2024-03-07T12:38:32;10.55;;;6.53;;
38783;SDS011;24531;45.502;12.238;2024-03-07T12:41:19;9.80;;;6.75;;
38783;SDS011;24531;45.502;12.238;2024-03-07T12:50:10;10.32;;;7.10;;
38783;SDS011;24531;45.502;12.238;2024-03-07T12:52:46;12.43;;;8.30;;
38783;SDS011;24531;45.502;12.238;2024-03-07T12:55:33;9.77;;;7.20;;
38783;SDS011;24531;45.502;12.238;2024-03-07T12:58:01;9.02;;;7.43;;
38783;SDS011;24531;45.502;12.238;2024-03-07T13:00:32;8.80;;;7.40;;
38783;SDS011;24531;45.502;12.238;2024-03-07T13:03:01;9.98;;;7.75;;
38783;SDS011;24531;45.502;12.238;2024-03-07T13:05:27;12.25;;;7.47;;
38783;SDS011;24531;45.502;12.238;2024-03-07T13:07:52;10.15;;;7.53;;
38783;SDS011;24531;45.502;12.238;2024-03-07T13:10:18;10.63;;;8.38;;
38783;SDS011;24531;45.502;12.238;2024-03-07T13:12:45;11.40;;;8.35;;
38783;SDS011;24531;45.502;12.238;2024-03-07T13:15:15;9.77;;;8.05;;
38783;SDS011;24531;45.502;12.238;2024-03-07T13:17:41;11.63;;;8.30;;
38783;SDS011;24531;45.502;12.238;2024-03-07T13:20:10;14.57;;;8.70;;
38783;SDS011;24531;45.502;12.238;2024-03-07T13:22:40;13.88;;;8.85;;
38783;SDS011;24531;45.502;12.238;2024-03-07T13:25:13;10.93;;;8.63;;
38783;SDS011;24531;45.502;12.238;2024-03-07T13:27:52;11.32;;;8.45;;
38783;SDS011;24531;45.502;12.238;2024-03-07T13:30:22;10.35;;;7.90;;
38783;SDS011;24531;45.502;12.238;2024-03-07T13:32:52;11.77;;;8.63;;
38783;SDS011;24531;45.502;12.238;2024-03-07T13:35:19;11.35;;;8.00;;
38783;SDS011;24531;45.502;12.238;2024-03-07T13:37:46;13.20;;;8.35;;
38783;SDS011;24531;45.502;12.238;2024-03-07T13:40:13;10.40;;;8.52;;
38783;SDS011;24531;45.502;12.238;2024-03-07T13:42:52;10.63;;;8.27;;
38783;SDS011;24531;45.502;12.238;2024-03-07T13:45:19;9.52;;;7.63;;
38783;SDS011;24531;45.502;12.238;2024-03-07T13:47:46;10.68;;;7.70;;
38783;SDS011;24531;45.502;12.238;2024-03-07T13:50:13;10.10;;;8.27;;
38783;SDS011;24531;45.502;12.238;2024-03-07T13:52:40;13.30;;;9.32;;
38783;SDS011;24531;45.502;12.238;2024-03-07T13:55:19;13.23;;;8.32;;
38783;SDS011;24531;45.502;12.238;2024-03-07T13:57:46;9.95;;;8.25;;
38783;SDS011;24531;45.502;12.238;2024-03-07T14:00:32;12.05;;;7.97;;
38783;SDS011;24531;45.502;12.238;2024-03-07T14:06:02;14.85;;;8.32;;
38783;SDS011;24531;45.502;12.238;2024-03-07T15:10:55;10.88;;;8.05;;
38783;SDS011;24531;45.502;12.238;2024-03-07T15:13:27;10.00;;;7.95;;
38783;SDS011;24531;45.502;12.238;2024-03-07T15:18:27;9.00;;;7.25;;
38783;SDS011;24531;45.502;12.238;2024-03-07T15:20:52;13.13;;;8.27;;
38783;SDS011;24531;45.502;12.238;2024-03-07T15:23:18;9.38;;;7.32;;
38783;SDS011;24531;45.502;12.238;2024-03-07T15:25:44;11.75;;;7.65;;
38783;SDS011;24531;45.502;12.238;2024-03-07T15:28:09;10.63;;;7.38;;
38783;SDS011;24531;45.502;12.238;2024-03-07T15:30:35;9.80;;;7.32;;
38783;SDS011;24531;45.502;12.238;2024-03-07T15:33:01;9.32;;;6.80;;
38783;SDS011;24531;45.502;12.238;2024-03-07T15:35:27;9.90;;;6.75;;
38783;SDS011;24531;45.502;12.238;2024-03-07T15:37:54;9.90;;;6.32;;
38783;SDS011;24531;45.502;12.238;2024-03-07T15:40:20;11.93;;;7.60;;
38783;SDS011;24531;45.502;12.238;2024-03-07T16:35:27;12.85;;;10.07;;
38783;SDS011;24531;45.502;12.238;2024-03-07T16:37:56;12.63;;;9.57;;
38783;SDS011;24531;45.502;12.238;2024-03-07T16:40:48;13.55;;;8.63;;
38783;SDS011;24531;45.502;12.238;2024-03-07T16:43:25;16.30;;;8.88;;
38783;SDS011;24531;45.502;12.238;2024-03-07T16:45:51;11.02;;;8.50;;
38783;SDS011;24531;45.502;12.238;2024-03-07T16:48:24;12.82;;;8.77;;
38783;SDS011;24531;45.502;12.238;2024-03-07T16:50:50;16.08;;;8.90;;
38783;SDS011;24531;45.502;12.238;2024-03-07T16:53:19;15.05;;;10.32;;
38783;SDS011;24531;45.502;12.238;2024-03-07T16:55:44;13.57;;;9.82;;
38783;SDS011;24531;45.502;12.238;2024-03-07T16:58:11;16.08;;;9.82;;
38783;SDS011;24531;45.502;12.238;2024-03-07T17:00:47;16.00;;;9.77;;
38783;SDS011;24531;45.502;12.238;2024-03-07T17:03:22;14.35;;;9.35;;
38783;SDS011;24531;45.502;12.238;2024-03-07T17:05:57;15.15;;;9.27;;
38783;SDS011;24531;45.502;12.238;2024-03-07T17:08:25;15.05;;;9.98;;
38783;SDS011;24531;45.502;12.238;2024-03-07T17:10:54;14.63;;;10.23;;
38783;SDS011;24531;45.502;12.238;2024-03-07T17:13:23;12.00;;;9.60;;
38783;SDS011;24531;45.502;12.238;2024-03-07T17:15:54;14.60;;;9.80;;
38783;SDS011;24531;45.502;12.238;2024-03-07T17:18:28;20.30;;;10.05;;
38783;SDS011;24531;45.502;12.238;2024-03-07T17:20:57;17.00;;;10.32;;
38783;SDS011;24531;45.502;12.238;2024-03-07T17:23:26;17.35;;;10.30;;
38783;SDS011;24531;45.502;12.238;2024-03-07T17:25:52;15.73;;;10.10;;
38783;SDS011;24531;45.502;12.238;2024-03-07T17:28:20;14.63;;;9.48;;
38783;SDS011;24531;45.502;12.238;2024-03-07T17:30:47;15.77;;;9.60;;
38783;SDS011;24531;45.502;12.238;2024-03-07T17:33:15;14.93;;;9.80;;